createdAt,value
2023-05-17T00:00:31.983Z,97846.47
2023-05-17T00:03:00.096Z,97850.13
2023-05-17T00:05:28.343Z,97837.97
2023-05-17T00:07:57.819Z,97847.47
2023-05-17T00:10:25.892Z,97850.72
2023-05-17T00:12:53.879Z,97847.38
2023-05-17T00:15:21.758Z,97853.94
2023-05-17T00:17:49.839Z,97867.22
2023-05-17T00:20:17.890Z,97883.66
2023-05-17T00:22:47.398Z,97889.84
2023-05-17T00:25:16.877Z,97893.34
2023-05-17T00:27:44.931Z,97897.13
2023-05-17T00:30:13.212Z,97899.09
2023-05-17T00:32:41.269Z,97892.56
2023-05-17T00:35:09.434Z,97894.44
2023-05-17T00:37:37.497Z,97888.81
2023-05-17T00:40:06.560Z,97879.59
2023-05-17T00:42:35.899Z,97881.84
2023-05-17T00:45:04.031Z,97886.41
2023-05-17T00:47:32.179Z,97893.41
2023-05-17T00:50:00.211Z,97898.94
2023-05-17T00:52:28.349Z,97902.91
2023-05-17T00:54:56.393Z,97907.13
2023-05-17T00:57:24.491Z,97909.34
2023-05-17T00:59:55.536Z,97924.03
2023-05-17T01:02:24.942Z,97928.28
2023-05-17T01:04:53.144Z,97926.66
2023-05-17T01:07:21.175Z,97934.63
2023-05-17T01:09:49.090Z,97924.81
2023-05-17T01:12:23.329Z,97935.25
2023-05-17T01:14:57.943Z,97928.16
2023-05-17T01:17:32.321Z,97925.19
2023-05-17T01:20:06.498Z,97916.47
2023-05-17T01:22:40.758Z,97921.88
2023-05-17T01:25:13.530Z,97935.78
2023-05-17T01:27:44.126Z,97938.16
2023-05-17T01:30:13.568Z,97940.50
2023-05-17T01:32:42.395Z,97947.31
2023-05-17T01:35:13.584Z,97946.38
2023-05-17T01:37:41.628Z,97955.94
2023-05-17T01:40:10.318Z,97948.44
2023-05-17T01:42:40.132Z,97945.06
2023-05-17T01:45:12.553Z,97954.59
2023-05-17T01:47:43.446Z,97955.41
2023-05-17T01:50:11.754Z,97963.56
2023-05-17T01:52:41.769Z,97970.66
2023-05-17T01:55:11.801Z,97972.09
2023-05-17T01:57:41.076Z,97983.88
2023-05-17T02:00:11.807Z,97980.34
2023-05-17T02:02:42.919Z,97982.03
2023-05-17T02:05:11.173Z,97980.56
2023-05-17T02:07:41.221Z,97961.69
2023-05-17T02:10:09.983Z,97955.63
2023-05-17T02:12:42.750Z,97952.34
2023-05-17T02:15:13.891Z,97947.50
2023-05-17T02:17:42.247Z,97964.91
2023-05-17T02:20:11.769Z,97984.28
2023-05-17T02:22:39.896Z,97997.50
2023-05-17T02:25:09.082Z,98012.88
2023-05-17T02:27:37.209Z,97990.63
2023-05-17T02:30:06.140Z,98006.25
2023-05-17T02:32:35.670Z,98011.19
2023-05-17T02:35:03.789Z,98016.19
2023-05-17T02:37:31.854Z,98000.00
2023-05-17T02:39:59.925Z,98002.09
2023-05-17T02:42:28.060Z,97997.81
2023-05-17T02:44:58.149Z,98008.91
2023-05-17T02:47:26.394Z,98025.16
2023-05-17T02:49:55.795Z,98022.53
2023-05-17T02:52:24.290Z,98019.47
2023-05-17T02:54:52.539Z,98004.69
2023-05-17T02:57:20.688Z,98031.78
2023-05-17T02:59:48.861Z,98050.03
2023-05-17T03:02:17.088Z,98059.22
2023-05-17T03:04:45.194Z,98073.31
2023-05-17T03:07:15.001Z,98090.56
2023-05-17T03:09:43.976Z,98094.91
2023-05-17T03:12:11.999Z,98099.31
2023-05-17T03:14:40.701Z,98104.63
2023-05-17T03:17:10.771Z,98104.97
2023-05-17T03:19:39.948Z,98106.53
2023-05-17T03:22:08.122Z,98113.75
2023-05-17T03:24:37.494Z,98114.44
2023-05-17T03:27:06.797Z,98111.72
2023-05-17T03:29:36.600Z,98100.72
2023-05-17T03:32:05.338Z,98120.34
2023-05-17T03:34:33.656Z,98099.44
2023-05-17T03:37:02.205Z,98100.19
2023-05-17T03:39:31.419Z,98105.47
2023-05-17T03:42:00.819Z,98119.31
2023-05-17T03:44:34.552Z,98154.38
2023-05-17T03:47:02.557Z,98160.63
2023-05-17T03:49:30.573Z,98194.66
2023-05-17T03:51:59.024Z,98212.91
2023-05-17T03:54:27.272Z,98209.78
2023-05-17T03:56:55.644Z,98224.25
2023-05-17T03:59:29.573Z,98240.47
2023-05-17T04:01:57.732Z,98247.34
2023-05-17T04:04:25.830Z,98245.00
2023-05-17T04:06:53.847Z,98247.34
2023-05-17T04:09:21.856Z,98238.31
2023-05-17T04:11:49.974Z,98250.19
2023-05-17T04:14:18.974Z,98247.75
2023-05-17T04:16:49.037Z,98241.47
2023-05-17T04:19:17.282Z,98234.75
2023-05-17T04:21:45.880Z,98248.03
2023-05-17T04:24:14.190Z,98257.09
2023-05-17T04:26:42.558Z,98272.88
2023-05-17T04:29:10.712Z,98284.28
2023-05-17T04:31:38.749Z,98318.28
2023-05-17T04:34:08.320Z,98338.53
2023-05-17T04:36:36.555Z,98329.06
2023-05-17T04:39:05.109Z,98324.63
2023-05-17T04:41:33.294Z,98334.00
2023-05-17T04:44:03.641Z,98343.19
2023-05-17T04:46:36.538Z,98360.06
2023-05-17T04:49:04.755Z,98349.13
2023-05-17T04:51:34.338Z,98359.09
2023-05-17T04:54:06.965Z,98370.28
2023-05-17T04:56:36.098Z,98398.75
2023-05-17T04:59:09.024Z,98406.63
2023-05-17T05:01:37.072Z,98427.56
2023-05-17T05:04:07.372Z,98424.44
2023-05-17T05:06:42.086Z,98428.38
2023-05-17T05:09:10.299Z,98449.25
2023-05-17T05:11:39.764Z,98457.56
2023-05-17T05:14:08.464Z,98466.81
2023-05-17T05:16:36.746Z,98476.88
2023-05-17T05:19:05.270Z,98484.59
2023-05-17T05:21:34.132Z,98495.50
2023-05-17T05:24:08.804Z,98520.41
2023-05-17T05:26:36.856Z,98520.88
2023-05-17T05:29:06.217Z,98535.25
2023-05-17T05:31:34.299Z,98538.91
2023-05-17T05:34:03.830Z,98559.47
2023-05-17T05:36:32.820Z,98583.03
2023-05-17T05:39:02.506Z,98595.13
2023-05-17T05:41:33.886Z,98603.81
2023-05-17T05:44:02.043Z,98604.97
2023-05-17T05:46:29.999Z,98630.44
2023-05-17T05:48:59.292Z,98627.81
2023-05-17T05:51:28.607Z,98634.94
2023-05-17T05:53:56.714Z,98636.69
2023-05-17T05:56:25.879Z,98637.38
2023-05-17T05:58:55.873Z,98619.53
2023-05-17T06:01:25.401Z,98603.47
2023-05-17T06:03:53.548Z,98607.72
2023-05-17T06:06:21.653Z,98596.59
2023-05-17T06:08:49.705Z,98607.50
2023-05-17T06:11:18.468Z,98643.78
2023-05-17T06:13:47.312Z,98661.28
2023-05-17T06:16:16.881Z,98652.63
2023-05-17T06:18:44.931Z,98670.31
2023-05-17T06:21:16.299Z,98680.84
2023-05-17T06:23:47.488Z,98695.84
2023-05-17T06:26:15.574Z,98675.22
2023-05-17T06:28:43.669Z,98704.63
2023-05-17T06:31:11.683Z,98732.69
2023-05-17T06:33:41.195Z,98736.69
2023-05-17T06:36:09.631Z,98739.41
2023-05-17T06:38:37.733Z,98730.59
2023-05-17T06:41:05.797Z,98753.47
2023-05-17T06:43:35.509Z,98756.47
2023-05-17T06:46:04.456Z,98744.34
2023-05-17T06:48:32.710Z,98729.75
2023-05-17T06:51:02.337Z,98701.31
2023-05-17T06:53:30.380Z,98688.19
2023-05-17T06:55:58.387Z,98688.97
2023-05-17T06:58:26.646Z,98704.94
2023-05-17T07:00:54.762Z,98691.03
2023-05-17T07:03:22.909Z,98703.03
2023-05-17T07:05:51.113Z,98682.88
2023-05-17T07:08:21.086Z,98703.09
2023-05-17T07:10:49.070Z,98697.09
2023-05-17T07:13:17.690Z,98692.09
2023-05-17T07:15:45.968Z,98684.16
2023-05-17T07:18:14.245Z,98681.06
2023-05-17T07:20:42.425Z,98678.44
2023-05-17T07:23:10.351Z,98677.94
2023-05-17T07:25:40.645Z,98681.63
2023-05-17T07:28:08.851Z,98681.28
2023-05-17T07:30:36.848Z,98684.59
2023-05-17T07:33:04.734Z,98696.69
2023-05-17T07:35:32.715Z,98701.44
2023-05-17T07:38:00.779Z,98709.22
2023-05-17T07:40:29.278Z,98704.50
2023-05-17T07:42:58.670Z,98702.63
2023-05-17T07:45:26.793Z,98705.94
2023-05-17T07:47:54.914Z,98680.38
2023-05-17T07:50:23.445Z,98675.25
2023-05-17T07:52:51.913Z,98685.78
2023-05-17T07:55:20.749Z,98657.44
2023-05-17T07:57:48.874Z,98647.06
2023-05-17T08:00:19.674Z,98625.06
2023-05-17T08:02:47.766Z,98616.41
2023-05-17T08:05:15.885Z,98619.72
2023-05-17T08:07:43.938Z,98612.00
2023-05-17T08:10:12.475Z,98612.41
2023-05-17T08:12:42.988Z,98594.88
2023-05-17T08:15:11.859Z,98577.75
2023-05-17T08:17:41.271Z,98573.28
2023-05-17T08:20:10.615Z,98530.19
2023-05-17T08:22:38.663Z,98507.91
2023-05-17T08:25:07.547Z,98485.72
2023-05-17T08:27:35.857Z,98475.44
2023-05-17T08:30:07.003Z,98445.41
2023-05-17T08:32:37.344Z,98430.13
2023-05-17T08:35:07.806Z,98421.94
2023-05-17T08:37:35.792Z,98415.00
2023-05-17T08:40:04.769Z,98392.91
2023-05-17T08:42:32.772Z,98390.53
2023-05-17T08:45:00.681Z,98372.06
2023-05-17T08:47:32.325Z,98359.66
2023-05-17T08:50:00.759Z,98341.75
2023-05-17T08:52:32.328Z,98303.16
2023-05-17T08:55:01.111Z,98288.38
2023-05-17T08:57:29.774Z,98261.28
2023-05-17T08:59:57.724Z,98249.66
2023-05-17T09:02:25.656Z,98239.44
2023-05-17T09:04:56.331Z,98233.72
2023-05-17T09:07:24.368Z,98232.06
2023-05-17T09:09:54.370Z,98232.69
2023-05-17T09:12:25.435Z,98241.81
2023-05-17T09:14:53.692Z,98238.22
2023-05-17T09:17:22.357Z,98229.31
2023-05-17T09:19:52.122Z,98228.31
2023-05-17T09:22:20.166Z,98224.13
2023-05-17T09:24:48.269Z,98214.81
2023-05-17T09:27:18.701Z,98220.34
2023-05-17T09:29:46.787Z,98217.22
2023-05-17T09:32:15.130Z,98215.25
2023-05-17T09:34:45.918Z,98201.31
2023-05-17T09:37:14.440Z,98204.06
2023-05-17T09:39:42.503Z,98199.91
2023-05-17T09:42:10.561Z,98191.47
2023-05-17T09:44:50.210Z,98194.91
2023-05-17T09:47:25.471Z,98189.56
2023-05-17T09:49:53.529Z,98189.06
2023-05-17T09:52:21.727Z,98190.63
2023-05-17T09:54:53.884Z,98194.56
2023-05-17T09:57:22.162Z,98197.50
2023-05-17T09:59:51.520Z,98193.59
2023-05-17T10:02:22.086Z,98193.16
2023-05-17T10:04:50.545Z,98184.78
2023-05-17T10:07:19.806Z,98179.38
2023-05-17T10:09:48.736Z,98184.34
2023-05-17T10:12:18.727Z,98175.91
2023-05-17T10:14:47.045Z,98180.63
2023-05-17T10:17:17.525Z,98179.84
2023-05-17T10:19:46.461Z,98174.25
2023-05-17T10:22:22.530Z,98167.03
2023-05-17T10:24:52.395Z,98160.28
2023-05-17T10:27:20.950Z,98168.31
2023-05-17T10:29:51.258Z,98161.09
2023-05-17T10:32:23.319Z,98156.56
2023-05-17T10:35:02.168Z,98153.47
2023-05-17T10:37:39.069Z,98144.28
2023-05-17T10:40:13.196Z,98153.78
2023-05-17T10:42:41.940Z,98154.25
2023-05-17T10:45:10.876Z,98159.94
2023-05-17T10:47:41.488Z,98162.06
2023-05-17T10:50:13.134Z,98158.97
2023-05-17T10:52:47.124Z,98158.16
2023-05-17T10:55:18.201Z,98144.25
2023-05-17T10:57:52.422Z,98138.03
2023-05-17T11:00:21.444Z,98141.00
2023-05-17T11:02:51.568Z,98139.84
2023-05-17T11:05:27.636Z,98131.78
2023-05-17T11:08:17.989Z,98121.59
2023-05-17T11:11:12.472Z,98134.75
2023-05-17T11:13:52.271Z,98120.91
2023-05-17T11:16:22.434Z,98114.00
2023-05-17T11:18:53.152Z,98115.97
2023-05-17T11:21:23.937Z,98116.97
2023-05-17T11:23:58.674Z,98110.88
2023-05-17T11:26:29.859Z,98130.97
2023-05-17T11:29:02.221Z,98117.63
2023-05-17T11:31:32.126Z,98120.78
2023-05-17T11:34:01.717Z,98117.31
2023-05-17T11:36:31.543Z,98104.47
2023-05-17T11:39:14.923Z,98108.41
2023-05-17T11:41:49.686Z,98108.88
2023-05-17T11:44:19.346Z,98111.19
2023-05-17T11:46:47.337Z,98106.25
2023-05-17T11:49:33.926Z,98105.94
2023-05-17T11:52:05.433Z,98110.22
2023-05-17T11:54:33.742Z,98097.19
2023-05-17T11:57:03.009Z,98094.41
2023-05-17T11:59:31.075Z,98098.09
2023-05-17T12:01:59.217Z,98091.53
2023-05-17T12:04:29.699Z,98094.53
2023-05-17T12:06:59.291Z,98095.53
2023-05-17T12:09:27.757Z,98103.47
2023-05-17T12:11:56.484Z,98104.63
2023-05-17T12:14:25.313Z,98090.91
2023-05-17T12:16:56.596Z,98092.41
2023-05-17T12:19:27.329Z,98084.56
2023-05-17T12:22:06.641Z,98088.84
2023-05-17T12:24:38.817Z,98081.22
2023-05-17T12:27:07.846Z,98090.69
2023-05-17T12:29:35.949Z,98093.88
2023-05-17T12:32:04.052Z,98105.88
2023-05-17T12:34:32.118Z,98111.66
2023-05-17T12:37:01.548Z,98108.88
2023-05-17T12:39:31.202Z,98104.75
2023-05-17T12:42:00.999Z,98109.00
2023-05-17T12:44:31.022Z,98103.66
2023-05-17T12:46:59.080Z,98106.31
2023-05-17T12:49:29.582Z,98105.41
2023-05-17T12:51:57.713Z,98101.94
2023-05-17T12:54:29.949Z,98112.19
2023-05-17T12:56:58.058Z,98112.19
2023-05-17T12:59:30.746Z,98118.06
2023-05-17T13:02:00.725Z,98124.47
2023-05-17T13:04:35.218Z,98123.06
2023-05-17T13:07:04.276Z,98124.09
2023-05-17T13:09:41.201Z,98122.59
2023-05-17T13:12:09.526Z,98113.19
2023-05-17T13:14:38.318Z,98116.34
2023-05-17T13:17:07.447Z,98116.53
2023-05-17T13:19:36.286Z,98114.34
2023-05-17T13:22:07.194Z,98113.34
2023-05-17T13:24:39.514Z,98118.75
2023-05-17T13:27:08.081Z,98132.22
2023-05-17T13:29:40.238Z,98124.28
2023-05-17T13:32:09.235Z,98129.94
2023-05-17T13:34:38.692Z,98131.38
2023-05-17T13:37:09.575Z,98132.38
2023-05-17T13:39:42.667Z,98131.16
2023-05-17T13:42:15.261Z,98121.09
2023-05-17T13:44:45.864Z,98128.19
2023-05-17T13:47:14.051Z,98137.94
2023-05-17T13:49:42.196Z,98134.31
2023-05-17T13:52:13.660Z,98121.66
2023-05-17T13:54:43.033Z,98122.91
2023-05-17T13:57:11.283Z,98125.94
2023-05-17T13:59:45.670Z,98129.75
2023-05-17T14:02:14.262Z,98131.75
2023-05-17T14:04:44.703Z,98122.03
2023-05-17T14:07:12.817Z,98129.50
2023-05-17T14:09:44.343Z,98131.56
2023-05-17T14:12:12.418Z,98123.81
2023-05-17T14:14:40.896Z,98124.63
2023-05-17T14:17:08.981Z,98129.25
2023-05-17T14:19:37.220Z,98135.69
2023-05-17T14:22:05.708Z,98133.44
2023-05-17T14:24:36.145Z,98126.47
2023-05-17T14:27:06.299Z,98131.34
2023-05-17T14:29:34.314Z,98132.47
2023-05-17T14:32:02.354Z,98149.00
2023-05-17T14:34:31.389Z,98152.28
2023-05-17T14:36:59.416Z,98144.53
2023-05-17T14:39:27.454Z,98154.72
2023-05-17T14:41:55.683Z,98149.66
2023-05-17T14:44:25.047Z,98152.56
2023-05-17T14:46:53.128Z,98160.84
2023-05-17T14:49:21.223Z,98154.25
2023-05-17T14:51:49.283Z,98148.81
2023-05-17T14:54:17.591Z,98155.81
2023-05-17T14:56:45.668Z,98152.69
2023-05-17T14:59:13.728Z,98154.34
2023-05-17T15:01:43.242Z,98149.78
2023-05-17T15:04:11.447Z,98147.88
2023-05-17T15:06:39.601Z,98156.34
2023-05-17T15:09:08.833Z,98156.75
2023-05-17T15:11:36.923Z,98160.38
2023-05-17T15:14:06.050Z,98158.59
2023-05-17T15:16:34.229Z,98160.06
2023-05-17T15:19:04.080Z,98159.75
2023-05-17T15:21:32.947Z,98163.91
2023-05-17T15:24:01.017Z,98157.06
2023-05-17T15:26:29.073Z,98164.34
2023-05-17T15:28:57.307Z,98164.41
2023-05-17T15:31:25.435Z,98158.59
2023-05-17T15:33:53.521Z,98164.69
2023-05-17T15:36:23.021Z,98153.81
2023-05-17T15:38:54.171Z,98159.63
2023-05-17T15:41:29.879Z,98144.56
2023-05-17T15:43:58.311Z,98142.75
2023-05-17T15:46:29.909Z,98145.88
2023-05-17T15:48:58.189Z,98128.63
2023-05-17T15:51:29.868Z,98142.53
2023-05-17T15:53:57.945Z,98132.97
2023-05-17T15:56:26.045Z,98134.59
2023-05-17T15:58:54.094Z,98136.31
2023-05-17T16:01:24.030Z,98134.06
2023-05-17T16:03:54.570Z,98124.56
2023-05-17T16:06:23.036Z,98135.47
2023-05-17T16:08:52.625Z,98136.47
2023-05-17T16:11:23.195Z,98134.34
2023-05-17T16:13:51.524Z,98147.41
2023-05-17T16:16:19.795Z,98139.66
2023-05-17T16:18:50.795Z,98142.00
2023-05-17T16:21:20.239Z,98146.38
2023-05-17T16:23:48.463Z,98151.63
2023-05-17T16:26:18.884Z,98143.38
2023-05-17T16:28:47.222Z,98147.66
2023-05-17T16:31:18.375Z,98159.28
2023-05-17T16:33:46.459Z,98157.44
2023-05-17T16:36:15.021Z,98154.44
2023-05-17T16:38:43.242Z,98154.78
2023-05-17T16:41:12.859Z,98156.78
2023-05-17T16:43:42.317Z,98163.75
2023-05-17T16:46:12.250Z,98156.28
2023-05-17T16:48:41.217Z,98149.78
2023-05-17T16:51:09.472Z,98142.00
2023-05-17T16:53:37.641Z,98154.19
2023-05-17T16:56:06.590Z,98152.09
2023-05-17T16:58:36.614Z,98149.13
2023-05-17T17:01:06.575Z,98155.03
2023-05-17T17:03:38.025Z,98152.41
2023-05-17T17:06:06.782Z,98150.78
2023-05-17T17:08:35.132Z,98163.19
2023-05-17T17:11:04.053Z,98160.38
2023-05-17T17:13:32.260Z,98166.69
2023-05-17T17:16:03.249Z,98167.34
2023-05-17T17:18:33.006Z,98165.19
2023-05-17T17:21:01.084Z,98164.34
2023-05-17T17:23:29.248Z,98165.63
2023-05-17T17:25:57.319Z,98170.81
2023-05-17T17:28:25.526Z,98174.59
2023-05-17T17:30:53.650Z,98180.19
2023-05-17T17:33:21.832Z,98184.34
2023-05-17T17:35:51.616Z,98183.53
2023-05-17T17:38:19.764Z,98181.38
2023-05-17T17:40:47.872Z,98179.56
2023-05-17T17:43:19.555Z,98183.81
2023-05-17T17:45:47.798Z,98192.91
2023-05-17T17:48:16.281Z,98193.38
2023-05-17T17:50:44.638Z,98194.41
2023-05-17T17:53:14.516Z,98191.09
2023-05-17T17:55:42.806Z,98183.66
2023-05-17T17:58:11.517Z,98190.44
2023-05-17T18:00:39.782Z,98189.44
2023-05-17T18:03:08.102Z,98188.59
2023-05-17T18:05:36.457Z,98188.78
2023-05-17T18:08:04.722Z,98194.72
2023-05-17T18:10:34.366Z,98196.69
2023-05-17T18:13:04.968Z,98205.91
2023-05-17T18:15:32.981Z,98207.50
2023-05-17T18:18:04.140Z,98198.34
2023-05-17T18:20:32.544Z,98207.56
2023-05-17T18:23:00.626Z,98210.88
2023-05-17T18:25:29.009Z,98206.59
2023-05-17T18:27:58.422Z,98212.19
2023-05-17T18:30:26.528Z,98213.00
2023-05-17T18:32:54.743Z,98206.72
2023-05-17T18:35:22.930Z,98213.59
2023-05-17T18:37:51.344Z,98207.53
2023-05-17T18:40:19.746Z,98210.47
2023-05-17T18:42:49.701Z,98212.44
2023-05-17T18:45:19.175Z,98213.63
2023-05-17T18:47:47.510Z,98213.63
2023-05-17T18:50:15.599Z,98217.66
2023-05-17T18:52:43.731Z,98221.47
2023-05-17T18:55:11.807Z,98225.34
2023-05-17T18:57:39.977Z,98228.28
2023-05-17T19:00:09.794Z,98234.88
2023-05-17T19:02:40.871Z,98239.56
2023-05-17T19:05:09.394Z,98242.84
2023-05-17T19:07:37.529Z,98247.91
2023-05-17T19:10:11.118Z,98254.72
2023-05-17T19:12:39.387Z,98263.78
2023-05-17T19:15:09.679Z,98264.16
2023-05-17T19:17:38.048Z,98272.09
2023-05-17T19:20:11.490Z,98276.84
2023-05-17T19:22:42.901Z,98285.31
2023-05-17T19:25:11.237Z,98292.00
2023-05-17T19:27:39.382Z,98297.16
2023-05-17T19:30:08.865Z,98303.59
2023-05-17T19:32:37.305Z,98302.25
2023-05-17T19:35:07.808Z,98311.84
2023-05-17T19:37:38.865Z,98312.59
2023-05-17T19:40:12.311Z,98320.84
2023-05-17T19:42:40.536Z,98311.81
2023-05-17T19:45:10.979Z,98322.84
2023-05-17T19:47:39.130Z,98334.53
2023-05-17T19:50:09.553Z,98335.59
2023-05-17T19:52:37.675Z,98347.34
2023-05-17T19:55:06.532Z,98350.44
2023-05-17T19:57:35.043Z,98363.06
2023-05-17T20:00:03.973Z,98366.16
2023-05-17T20:02:32.363Z,98376.88
2023-05-17T20:05:02.287Z,98380.31
2023-05-17T20:07:33.252Z,98390.38
2023-05-17T20:10:01.421Z,98396.09
2023-05-17T20:12:29.554Z,98399.69
2023-05-17T20:14:57.688Z,98400.56
2023-05-17T20:17:25.851Z,98403.03
2023-05-17T20:19:53.932Z,98404.34
2023-05-17T20:22:22.237Z,98403.72
2023-05-17T20:24:51.636Z,98416.41
2023-05-17T20:27:19.741Z,98424.16
2023-05-17T20:29:47.798Z,98422.75
2023-05-17T20:32:16.141Z,98427.88
2023-05-17T20:34:44.382Z,98434.81
2023-05-17T20:37:12.569Z,98426.81
2023-05-17T20:39:40.570Z,98437.69
2023-05-17T20:42:10.253Z,98445.16
2023-05-17T20:44:38.416Z,98455.78
2023-05-17T20:47:07.631Z,98466.69
2023-05-17T20:49:35.848Z,98475.50
2023-05-17T20:52:04.537Z,98480.06
2023-05-17T20:54:33.887Z,98482.09
2023-05-17T20:57:06.652Z,98499.66
2023-05-17T20:59:36.741Z,98490.00
2023-05-17T21:02:07.029Z,98498.59
2023-05-17T21:04:35.154Z,98509.94
2023-05-17T21:07:06.626Z,98512.34
2023-05-17T21:09:38.234Z,98518.50
2023-05-17T21:12:06.936Z,98526.25
2023-05-17T21:14:36.421Z,98530.56
2023-05-17T21:17:04.557Z,98517.63
2023-05-17T21:19:32.609Z,98539.31
2023-05-17T21:22:00.608Z,98545.00
2023-05-17T21:24:28.662Z,98557.84
2023-05-17T21:26:56.685Z,98548.97
2023-05-17T21:29:24.712Z,98565.81
2023-05-17T21:31:54.226Z,98569.78
2023-05-17T21:34:22.378Z,98576.66
2023-05-17T21:36:50.430Z,98588.31
2023-05-17T21:39:18.400Z,98584.31
2023-05-17T21:41:46.391Z,98601.19
2023-05-17T21:44:14.341Z,98599.13
2023-05-17T21:46:42.396Z,98613.81
2023-05-17T21:49:11.765Z,98602.06
2023-05-17T21:51:41.686Z,98610.56
2023-05-17T21:54:09.690Z,98602.50
2023-05-17T21:56:37.691Z,98606.78
2023-05-17T21:59:05.644Z,98609.75
2023-05-17T22:01:33.693Z,98606.69
2023-05-17T22:04:01.718Z,98602.84
2023-05-17T22:06:31.125Z,98593.72
2023-05-17T22:08:59.170Z,98593.22
2023-05-17T22:11:27.691Z,98587.84
2023-05-17T22:13:56.202Z,98607.47
2023-05-17T22:16:25.792Z,98618.69
2023-05-17T22:18:54.079Z,98610.56
2023-05-17T22:21:22.984Z,98618.50
2023-05-17T22:23:52.490Z,98624.28
2023-05-17T22:26:21.511Z,98623.44
2023-05-17T22:28:49.578Z,98634.94
2023-05-17T22:31:18.597Z,98621.50
2023-05-17T22:33:46.762Z,98632.97
2023-05-17T22:36:14.937Z,98644.91
2023-05-17T22:38:43.602Z,98645.16
2023-05-17T22:41:13.083Z,98650.16
2023-05-17T22:43:41.778Z,98647.91
2023-05-17T22:46:09.865Z,98637.78
2023-05-17T22:48:38.676Z,98638.28
2023-05-17T22:51:06.786Z,98643.06
2023-05-17T22:53:34.798Z,98640.84
2023-05-17T22:56:02.971Z,98635.63
2023-05-17T22:58:32.362Z,98637.91
2023-05-17T23:01:00.752Z,98641.00
2023-05-17T23:03:28.888Z,98641.00
2023-05-17T23:06:03.037Z,98659.63
2023-05-17T23:08:31.303Z,98659.50
2023-05-17T23:10:59.444Z,98674.00
2023-05-17T23:13:27.449Z,98673.78
2023-05-17T23:16:26.448Z,98676.13
2023-05-17T23:22:34.049Z,98681.59
2023-05-17T23:25:03.424Z,98686.13
2023-05-17T23:27:31.665Z,98695.41
2023-05-17T23:30:01.225Z,98701.09
2023-05-17T23:32:32.639Z,98688.59
2023-05-17T23:35:04.023Z,98692.41
2023-05-17T23:37:32.078Z,98677.88
2023-05-17T23:40:00.257Z,98689.63
2023-05-17T23:42:29.367Z,98697.47
2023-05-17T23:44:57.448Z,98702.19
2023-05-17T23:47:25.528Z,98722.19
2023-05-17T23:49:55.123Z,98744.16
2023-05-17T23:52:23.792Z,98757.63
2023-05-17T23:54:52.108Z,98763.56
2023-05-17T23:57:22.595Z,98758.53
2023-05-17T23:59:50.627Z,98748.03
